createdAt,value
2018-08-18T00:00:17.068Z,67.10
2018-08-18T00:02:46.145Z,67.62
2018-08-18T00:05:15.802Z,67.61
2018-08-18T00:07:44.922Z,67.91
2018-08-18T00:10:16.645Z,67.37
2018-08-18T00:12:45.716Z,67.29
2018-08-18T00:15:15.341Z,68.31
2018-08-18T00:17:44.407Z,67.26
2018-08-18T00:20:15.491Z,67.81
2018-08-18T00:22:44.766Z,67.72
2018-08-18T00:25:14.016Z,66.86
2018-08-18T00:27:43.094Z,67.69
2018-08-18T00:30:17.482Z,67.31
2018-08-18T00:32:46.542Z,67.11
2018-08-18T00:35:16.348Z,67.65
2018-08-18T00:37:45.507Z,67.82
2018-08-18T00:40:14.710Z,66.98
2018-08-18T00:42:43.800Z,66.89
2018-08-18T00:45:13.677Z,66.85
2018-08-18T00:47:42.769Z,66.99
2018-08-18T00:50:15.996Z,66.64
2018-08-18T00:52:45.823Z,67.45
2018-08-18T00:55:14.943Z,66.98
2018-08-18T00:57:43.993Z,67.60
2018-08-18T01:00:13.167Z,67.54
2018-08-18T01:02:42.294Z,67.12
2018-08-18T01:05:11.679Z,67.10
2018-08-18T01:07:40.843Z,67.02
2018-08-18T01:10:09.950Z,67.49
2018-08-18T01:12:39.032Z,66.85
2018-08-18T01:15:08.630Z,66.85
2018-08-18T01:17:37.775Z,67.17
2018-08-18T01:20:07.175Z,67.20
2018-08-18T01:22:36.203Z,66.95
2018-08-18T01:25:06.277Z,67.53
2018-08-18T01:27:46.615Z,67.47
2018-08-18T01:30:16.657Z,66.86
2018-08-18T01:32:45.728Z,67.69
2018-08-18T01:35:14.818Z,68.41
2018-08-18T01:37:43.874Z,68.83
2018-08-18T01:40:12.925Z,68.33
2018-08-18T01:42:41.966Z,67.55
2018-08-18T01:45:11.045Z,67.39
2018-08-18T01:47:40.141Z,68.46
2018-08-18T01:50:25.677Z,67.87
2018-08-18T01:52:54.756Z,68.57
2018-08-18T01:55:23.900Z,68.76
2018-08-18T01:57:52.978Z,68.84
2018-08-18T02:00:24.817Z,68.61
2018-08-18T02:02:53.930Z,68.56
2018-08-18T02:05:23.649Z,68.31
2018-08-18T02:07:52.718Z,68.56
2018-08-18T02:10:21.796Z,68.81
2018-08-18T02:13:02.828Z,68.71
2018-08-18T02:15:32.201Z,69.19
2018-08-18T02:18:01.307Z,69.27
2018-08-18T02:20:30.369Z,69.32
2018-08-18T02:22:59.430Z,69.32
2018-08-18T02:25:28.582Z,69.31
2018-08-18T02:27:57.672Z,68.79
2018-08-18T02:30:26.750Z,68.71
2018-08-18T02:32:55.852Z,68.58
2018-08-18T02:35:24.928Z,69.46
2018-08-18T02:37:54.030Z,68.21
2018-08-18T02:40:23.107Z,67.81
2018-08-18T02:42:52.191Z,67.87
2018-08-18T02:45:21.289Z,67.72
2018-08-18T02:48:04.722Z,68.38
2018-08-18T02:50:33.812Z,68.17
2018-08-18T02:53:11.801Z,69.37
2018-08-18T02:55:40.900Z,69.59
2018-08-18T02:58:09.926Z,69.16
2018-08-18T03:00:38.990Z,68.87
2018-08-18T03:03:08.190Z,69.70
2018-08-18T03:05:37.307Z,68.96
2018-08-18T03:08:06.393Z,69.62
2018-08-18T03:10:35.535Z,70.29
2018-08-18T03:13:04.598Z,69.93
2018-08-18T03:16:06.458Z,70.28
2018-08-18T03:18:43.200Z,69.71
2018-08-18T03:21:12.320Z,70.01
2018-08-18T03:23:52.660Z,69.63
2018-08-18T03:26:26.540Z,69.73
2018-08-18T03:28:55.632Z,68.97
2018-08-18T03:31:24.696Z,69.99
2018-08-18T03:33:53.775Z,69.43
2018-08-18T03:36:28.589Z,69.49
2018-08-18T03:38:58.038Z,69.20
2018-08-18T03:41:27.843Z,69.98
2018-08-18T03:43:57.373Z,69.67
2018-08-18T03:46:26.449Z,68.78
2018-08-18T03:48:55.588Z,68.70
2018-08-18T03:51:30.226Z,67.65
2018-08-18T03:53:59.761Z,68.44
2018-08-18T03:56:28.790Z,67.83
2018-08-18T03:58:58.669Z,68.51
2018-08-18T04:01:40.607Z,69.04
2018-08-18T04:04:10.897Z,69.20
2018-08-18T04:06:41.121Z,69.78
2018-08-18T04:09:13.528Z,70.54
2018-08-18T04:11:42.575Z,72.02
2018-08-18T04:14:11.689Z,70.26
2018-08-18T04:16:50.956Z,68.90
2018-08-18T04:19:21.024Z,69.94
2018-08-18T04:21:52.054Z,69.15
2018-08-18T04:24:21.178Z,68.53
2018-08-18T04:26:51.277Z,68.96
2018-08-18T04:29:22.038Z,69.16
2018-08-18T04:31:51.135Z,69.16
2018-08-18T04:34:20.257Z,69.18
2018-08-18T04:36:49.387Z,68.60
2018-08-18T04:39:18.438Z,68.98
2018-08-18T04:41:47.528Z,68.65
2018-08-18T04:44:16.669Z,69.50
2018-08-18T04:46:45.725Z,69.27
2018-08-18T04:49:15.485Z,69.94
2018-08-18T04:51:44.687Z,69.39
2018-08-18T04:54:13.856Z,68.90
2018-08-18T04:56:42.987Z,69.50
2018-08-18T04:59:12.031Z,68.90
2018-08-18T05:01:41.613Z,69.02
2018-08-18T05:04:12.739Z,67.68
2018-08-18T05:06:43.196Z,68.08
2018-08-18T05:09:13.766Z,67.77
2018-08-18T05:11:42.890Z,67.96
2018-08-18T05:14:11.966Z,68.24
2018-08-18T05:16:41.061Z,68.57
2018-08-18T05:19:10.174Z,67.93
2018-08-18T05:21:39.201Z,68.11
2018-08-18T05:24:21.162Z,67.62
2018-08-18T05:26:50.658Z,66.63
2018-08-18T05:29:19.754Z,66.11
2018-08-18T05:31:48.881Z,65.72
2018-08-18T05:34:17.952Z,65.17
2018-08-18T05:36:47.077Z,65.78
2018-08-18T05:39:16.200Z,64.68
2018-08-18T05:41:45.289Z,64.22
2018-08-18T05:44:14.341Z,64.37
2018-08-18T05:46:43.743Z,63.77
2018-08-18T05:49:15.880Z,63.55
2018-08-18T05:51:47.687Z,62.67
2018-08-18T05:54:22.300Z,62.61
2018-08-18T05:56:51.416Z,61.79
2018-08-18T05:59:20.518Z,62.46
2018-08-18T06:01:49.606Z,62.48
2018-08-18T06:04:20.281Z,63.44
2018-08-18T06:06:49.930Z,63.79
2018-08-18T06:09:20.212Z,64.39
2018-08-18T06:11:49.578Z,64.78
2018-08-18T06:14:19.152Z,65.09
2018-08-18T06:16:48.366Z,65.25
2018-08-18T06:19:17.515Z,64.17
2018-08-18T06:21:46.645Z,64.91
2018-08-18T06:24:15.825Z,64.91
2018-08-18T06:26:44.939Z,63.86
2018-08-18T06:29:14.034Z,63.37
2018-08-18T06:31:57.231Z,63.16
2018-08-18T06:34:27.389Z,62.60
2018-08-18T06:36:56.744Z,61.76
2018-08-18T06:39:25.948Z,61.23
2018-08-18T06:41:55.144Z,61.60
2018-08-18T06:44:27.085Z,60.75
2018-08-18T06:46:56.204Z,61.21
2018-08-18T06:49:25.355Z,61.21
2018-08-18T06:51:54.538Z,61.83
2018-08-18T06:54:23.950Z,61.47
2018-08-18T06:56:52.980Z,61.34
2018-08-18T06:59:22.124Z,61.93
2018-08-18T07:01:51.344Z,61.47
2018-08-18T07:04:24.801Z,61.03
2018-08-18T07:06:53.858Z,61.12
2018-08-18T07:09:23.022Z,61.39
2018-08-18T07:11:52.144Z,62.17
2018-08-18T07:14:21.310Z,62.30
2018-08-18T07:16:50.424Z,62.16
2018-08-18T07:19:19.558Z,61.75
2018-08-18T07:21:48.730Z,61.15
2018-08-18T07:24:17.930Z,61.15
2018-08-18T07:26:47.024Z,60.84
2018-08-18T07:29:16.286Z,59.77
2018-08-18T07:31:45.490Z,60.95
2018-08-18T07:34:14.575Z,61.60
2018-08-18T07:36:43.889Z,60.29
2018-08-18T07:39:12.992Z,59.44
2018-08-18T07:41:42.170Z,59.16
2018-08-18T07:44:11.314Z,58.87
2018-08-18T07:46:40.436Z,59.24
2018-08-18T07:49:09.650Z,59.23
2018-08-18T07:51:39.719Z,60.22
2018-08-18T07:54:08.890Z,60.11
2018-08-18T07:56:38.062Z,60.46
2018-08-18T07:59:07.157Z,59.79
2018-08-18T08:01:36.359Z,59.55
2018-08-18T08:04:05.793Z,58.78
2018-08-18T08:06:34.911Z,59.50
2018-08-18T08:09:04.811Z,58.63
2018-08-18T08:11:34.008Z,58.47
2018-08-18T08:14:03.124Z,57.32
2018-08-18T08:16:32.200Z,56.78
2018-08-18T08:19:01.601Z,55.54
2018-08-18T08:21:31.679Z,55.04
2018-08-18T08:24:01.122Z,55.16
2018-08-18T08:26:30.256Z,55.84
2018-08-18T08:28:59.678Z,55.99
2018-08-18T08:31:29.070Z,55.29
2018-08-18T08:33:58.177Z,55.20
2018-08-18T08:36:27.209Z,53.79
2018-08-18T08:38:59.038Z,53.88
2018-08-18T08:41:30.120Z,53.52
2018-08-18T08:43:59.287Z,53.94
2018-08-18T08:46:28.311Z,54.30
2018-08-18T08:48:59.264Z,53.23
2018-08-18T08:51:28.386Z,52.98
2018-08-18T08:53:58.765Z,53.17
2018-08-18T08:56:45.164Z,52.52
2018-08-18T08:59:14.262Z,52.51
2018-08-18T09:01:43.306Z,51.97
2018-08-18T09:04:12.529Z,51.75
2018-08-18T09:06:45.863Z,51.70
2018-08-18T09:09:15.046Z,51.35
2018-08-18T09:11:44.130Z,50.81
2018-08-18T09:14:13.258Z,50.63
2018-08-18T09:16:42.429Z,50.59
2018-08-18T09:19:11.636Z,50.03
2018-08-18T09:21:49.824Z,50.47
2018-08-18T09:24:22.921Z,50.98
2018-08-18T09:26:52.130Z,49.95
2018-08-18T09:29:21.847Z,49.96
2018-08-18T09:31:50.898Z,49.84
2018-08-18T09:34:19.988Z,50.34
2018-08-18T09:36:49.618Z,50.88
2018-08-18T09:39:24.943Z,48.37
2018-08-18T09:41:54.088Z,47.90
2018-08-18T09:44:32.090Z,48.53
2018-08-18T09:47:01.178Z,48.21
2018-08-18T09:49:31.449Z,48.83
2018-08-18T09:52:01.402Z,49.46
2018-08-18T09:54:30.665Z,47.60
2018-08-18T09:56:59.883Z,46.46
2018-08-18T09:59:29.440Z,45.84
2018-08-18T10:01:58.596Z,45.68
2018-08-18T10:04:28.486Z,45.81
2018-08-18T10:06:57.596Z,44.64
2018-08-18T10:09:26.836Z,44.36
2018-08-18T10:11:56.061Z,44.62
2018-08-18T10:14:25.287Z,45.01
2018-08-18T10:16:54.347Z,44.31
2018-08-18T10:19:23.474Z,45.21
2018-08-18T10:21:52.915Z,45.27
2018-08-18T10:24:22.307Z,44.71
2018-08-18T10:26:56.889Z,44.86
2018-08-18T10:29:26.647Z,43.52
2018-08-18T10:31:56.970Z,43.93
2018-08-18T10:34:27.331Z,43.59
2018-08-18T10:37:00.959Z,43.19
2018-08-18T10:39:30.851Z,43.58
2018-08-18T10:42:16.834Z,42.60
2018-08-18T10:44:51.692Z,41.75
2018-08-18T10:47:22.211Z,42.24
2018-08-18T10:50:02.902Z,41.84
2018-08-18T10:52:43.702Z,41.36
2018-08-18T10:55:13.985Z,41.14
2018-08-18T10:57:54.984Z,40.62
2018-08-18T11:00:25.068Z,39.62
2018-08-18T11:02:55.430Z,41.27
2018-08-18T11:05:25.431Z,40.38
2018-08-18T11:08:04.365Z,39.55
2018-08-18T11:10:35.079Z,39.62
2018-08-18T11:13:04.361Z,39.42
2018-08-18T11:15:33.564Z,37.91
2018-08-18T11:18:02.958Z,39.32
2018-08-18T11:20:33.902Z,38.17
2018-08-18T11:23:05.074Z,39.63
2018-08-18T11:25:39.116Z,39.38
2018-08-18T11:28:09.212Z,38.41
2018-08-18T11:30:38.306Z,37.89
2018-08-18T11:33:07.711Z,37.13
2018-08-18T11:35:37.372Z,37.58
2018-08-18T11:38:09.292Z,36.48
2018-08-18T11:40:38.353Z,36.09
2018-08-18T11:43:11.479Z,34.72
2018-08-18T11:45:41.306Z,35.65
2018-08-18T11:48:17.403Z,35.18
2018-08-18T11:50:46.966Z,35.30
2018-08-18T11:53:16.206Z,36.05
2018-08-18T11:55:45.382Z,34.51
2018-08-18T11:58:16.854Z,33.87
2018-08-18T12:00:50.296Z,34.88
2018-08-18T12:03:23.267Z,35.75
2018-08-18T12:05:55.422Z,34.82
2018-08-18T12:08:27.027Z,34.98
2018-08-18T12:10:58.289Z,33.82
2018-08-18T12:13:32.421Z,34.39
2018-08-18T12:16:08.110Z,34.71
2018-08-18T12:18:38.507Z,34.66
2018-08-18T12:21:08.087Z,33.34
2018-08-18T12:23:38.677Z,33.29
2018-08-18T12:26:12.446Z,33.05
2018-08-18T12:28:47.690Z,33.22
2018-08-18T12:31:18.237Z,32.50
2018-08-18T12:33:47.342Z,32.39
2018-08-18T12:36:16.586Z,32.40
2018-08-18T12:38:48.592Z,31.96
2018-08-18T12:41:17.730Z,31.89
2018-08-18T12:43:48.492Z,30.63
2018-08-18T12:46:18.785Z,31.63
2018-08-18T12:48:49.821Z,31.47
2018-08-18T12:51:19.807Z,29.91
2018-08-18T12:53:51.360Z,29.30
2018-08-18T12:56:23.524Z,29.70
2018-08-18T12:58:52.647Z,30.96
2018-08-18T13:01:36.768Z,31.02
2018-08-18T13:04:08.029Z,30.47
2018-08-18T13:06:45.147Z,30.02
2018-08-18T13:09:15.506Z,30.20
2018-08-18T13:11:46.089Z,29.51
2018-08-18T13:14:17.395Z,29.00
2018-08-18T13:16:47.110Z,27.61
2018-08-18T13:19:18.126Z,28.63
2018-08-18T13:21:47.256Z,28.89
2018-08-18T13:24:16.593Z,27.97
2018-08-18T13:26:45.622Z,27.63
2018-08-18T13:29:14.702Z,27.89
2018-08-18T13:31:44.580Z,25.81
2018-08-18T13:34:15.787Z,26.36
2018-08-18T13:36:45.934Z,26.62
2018-08-18T13:39:17.321Z,26.52
2018-08-18T13:41:47.356Z,26.00
2018-08-18T13:44:23.154Z,25.38
2018-08-18T13:46:52.342Z,24.46
2018-08-18T13:49:23.722Z,23.52
2018-08-18T13:51:52.931Z,23.65
2018-08-18T13:54:22.115Z,23.84
2018-08-18T13:56:51.083Z,24.73
2018-08-18T13:59:52.202Z,27.97
2018-08-18T14:02:21.412Z,25.31
2018-08-18T14:04:50.505Z,25.52
2018-08-18T14:07:19.602Z,25.06
2018-08-18T14:09:52.514Z,27.68
2018-08-18T14:12:21.570Z,24.51
2018-08-18T14:14:50.677Z,25.22
2018-08-18T14:17:21.764Z,28.90
2018-08-18T14:19:51.611Z,25.68
2018-08-18T14:22:21.908Z,27.65
2018-08-18T14:24:51.052Z,27.89
2018-08-18T14:27:21.879Z,25.12
2018-08-18T14:29:51.004Z,26.74
2018-08-18T14:32:25.138Z,28.23
2018-08-18T14:34:59.446Z,28.78
2018-08-18T14:37:28.471Z,27.83
2018-08-18T14:39:57.594Z,25.52
2018-08-18T14:42:26.606Z,26.31
2018-08-18T14:44:57.546Z,26.51
2018-08-18T14:47:26.606Z,26.22
2018-08-18T14:50:12.400Z,29.28
2018-08-18T14:52:42.336Z,27.98
2018-08-18T14:55:11.436Z,26.86
2018-08-18T14:57:47.237Z,25.56
2018-08-18T15:00:16.319Z,24.81
2018-08-18T15:02:45.392Z,25.68
2018-08-18T15:05:14.499Z,27.29
2018-08-18T15:07:49.210Z,25.95
2018-08-18T15:10:32.547Z,25.80
2018-08-18T15:13:02.291Z,24.30
2018-08-18T15:15:32.354Z,25.61
2018-08-18T15:18:05.634Z,26.56
2018-08-18T15:20:35.954Z,23.93
2018-08-18T15:23:06.708Z,26.68
2018-08-18T15:25:36.592Z,24.13
2018-08-18T15:28:07.133Z,25.67
2018-08-18T15:30:37.136Z,23.96
2018-08-18T15:33:07.328Z,23.76
2018-08-18T15:35:37.810Z,23.40
2018-08-18T15:38:07.796Z,25.24
2018-08-18T15:40:36.865Z,25.32
2018-08-18T15:43:05.955Z,24.21
2018-08-18T15:46:09.922Z,23.85
2018-08-18T15:48:40.533Z,26.07
2018-08-18T15:51:09.720Z,26.50
2018-08-18T15:54:02.921Z,24.27
2018-08-18T15:56:34.354Z,25.91
2018-08-18T15:59:03.923Z,23.49
2018-08-18T16:01:34.282Z,24.93
2018-08-18T16:04:04.163Z,23.98
2018-08-18T16:06:33.425Z,24.44
2018-08-18T16:09:02.629Z,23.29
2018-08-18T16:11:31.807Z,24.50
2018-08-18T16:14:01.037Z,27.18
2018-08-18T16:16:30.185Z,23.05
2018-08-18T16:19:08.245Z,22.61
2018-08-18T16:21:37.400Z,22.58
2018-08-18T16:24:06.593Z,23.06
2018-08-18T16:26:36.072Z,24.65
2018-08-18T16:29:05.723Z,22.57
2018-08-18T16:31:34.817Z,26.26
2018-08-18T16:34:05.350Z,24.63
2018-08-18T16:36:39.648Z,23.02
2018-08-18T16:39:08.769Z,23.31
2018-08-18T16:41:37.864Z,22.52
2018-08-18T16:44:07.243Z,23.11
2018-08-18T16:46:36.357Z,22.51
2018-08-18T16:49:06.439Z,25.22
2018-08-18T16:51:35.619Z,24.71
2018-08-18T16:54:19.110Z,22.56
2018-08-18T16:56:48.233Z,24.15
2018-08-18T16:59:17.339Z,21.92
2018-08-18T17:01:46.453Z,22.18
2018-08-18T17:04:22.807Z,23.80
2018-08-18T17:06:51.923Z,23.66
2018-08-18T17:09:32.848Z,24.65
2018-08-18T17:12:20.925Z,24.05
2018-08-18T17:14:49.998Z,23.64
2018-08-18T17:17:19.164Z,24.56
2018-08-18T17:19:48.195Z,25.03
2018-08-18T17:22:17.286Z,27.90
2018-08-18T17:24:46.368Z,25.65
2018-08-18T17:27:15.515Z,25.65
2018-08-18T17:29:49.304Z,28.28
2018-08-18T17:32:18.412Z,26.38
2018-08-18T17:34:47.512Z,26.85
2018-08-18T17:37:16.612Z,25.18
2018-08-18T17:39:45.804Z,25.84
2018-08-18T17:43:02.869Z,26.57
2018-08-18T17:45:39.154Z,26.48
2018-08-18T17:48:08.420Z,25.82
2018-08-18T17:50:40.185Z,25.73
2018-08-18T17:53:09.812Z,27.64
2018-08-18T17:55:38.873Z,26.66
2018-08-18T17:58:07.992Z,25.30
2018-08-18T18:00:37.082Z,27.61
2018-08-18T18:03:08.154Z,27.17
2018-08-18T18:05:37.357Z,26.88
2018-08-18T18:08:07.487Z,25.80
2018-08-18T18:10:37.862Z,26.66
2018-08-18T18:13:16.472Z,25.62
2018-08-18T18:15:47.179Z,26.70
2018-08-18T18:18:18.332Z,26.47
2018-08-18T18:20:48.934Z,27.79
2018-08-18T18:23:18.734Z,26.65
2018-08-18T18:25:47.881Z,26.61
2018-08-18T18:28:16.998Z,28.59
2018-08-18T18:30:46.094Z,30.81
2018-08-18T18:33:15.189Z,33.26
2018-08-18T18:35:44.362Z,32.36
2018-08-18T18:38:13.831Z,33.70
2018-08-18T18:40:44.720Z,34.02
2018-08-18T18:43:13.780Z,33.57
2018-08-18T18:45:42.963Z,33.92
2018-08-18T18:48:13.514Z,34.72
2018-08-18T18:50:48.227Z,34.22
2018-08-18T18:53:17.508Z,34.74
2018-08-18T18:55:51.701Z,34.88
2018-08-18T18:58:20.960Z,34.20
2018-08-18T19:01:11.080Z,35.86
2018-08-18T19:03:40.176Z,36.22
2018-08-18T19:06:09.333Z,35.52
2018-08-18T19:08:53.760Z,36.05
2018-08-18T19:11:23.474Z,34.75
2018-08-18T19:13:52.655Z,35.82
2018-08-18T19:16:21.810Z,35.37
2018-08-18T19:18:50.906Z,35.36
2018-08-18T19:21:20.063Z,35.65
2018-08-18T19:23:49.226Z,36.23
2018-08-18T19:26:19.216Z,35.58
2018-08-18T19:28:48.412Z,35.69
2018-08-18T19:31:20.807Z,35.59
2018-08-18T19:33:50.626Z,36.49
2018-08-18T19:36:19.703Z,36.42
2018-08-18T19:38:49.423Z,36.82
2018-08-18T19:41:18.610Z,35.66
2018-08-18T19:43:47.766Z,38.12
2018-08-18T19:46:16.925Z,38.28
2018-08-18T19:48:46.263Z,38.41
2018-08-18T19:51:16.209Z,37.82
2018-08-18T19:53:45.335Z,38.90
2018-08-18T19:56:14.421Z,39.22
2018-08-18T19:58:43.977Z,38.83
2018-08-18T20:01:13.086Z,39.44
2018-08-18T20:03:42.282Z,40.00
2018-08-18T20:06:17.185Z,40.42
2018-08-18T20:08:46.341Z,39.63
2018-08-18T20:11:15.891Z,39.92
2018-08-18T20:13:45.014Z,40.32
2018-08-18T20:16:14.213Z,39.45
2018-08-18T20:18:43.710Z,40.99
2018-08-18T20:21:12.855Z,40.45
2018-08-18T20:23:42.010Z,41.87
2018-08-18T20:26:11.153Z,41.45
2018-08-18T20:28:40.299Z,40.47
2018-08-18T20:31:09.696Z,40.59
2018-08-18T20:33:38.823Z,40.39
2018-08-18T20:36:08.053Z,41.63
2018-08-18T20:38:42.306Z,41.95
2018-08-18T20:41:11.777Z,42.79
2018-08-18T20:43:42.055Z,41.83
2018-08-18T20:46:11.295Z,41.72
2018-08-18T20:48:40.210Z,40.95
2018-08-18T20:51:09.487Z,41.28
2018-08-18T20:53:38.632Z,41.89
2018-08-18T20:56:07.739Z,41.62
2018-08-18T20:58:36.855Z,41.16
2018-08-18T21:01:06.704Z,41.13
2018-08-18T21:03:46.754Z,41.93
2018-08-18T21:06:16.757Z,42.52
2018-08-18T21:08:45.946Z,42.79
2018-08-18T21:11:15.326Z,42.73
2018-08-18T21:13:47.044Z,43.03
2018-08-18T21:16:16.782Z,43.89
2018-08-18T21:18:45.898Z,43.63
2018-08-18T21:21:33.786Z,43.54
2018-08-18T21:24:02.877Z,43.08
2018-08-18T21:26:31.985Z,43.33
2018-08-18T21:29:01.081Z,43.42
2018-08-18T21:31:33.091Z,43.66
2018-08-18T21:34:03.222Z,43.57
2018-08-18T21:36:32.848Z,43.65
2018-08-18T21:39:05.007Z,43.65
2018-08-18T21:41:36.584Z,43.21
2018-08-18T21:44:06.533Z,44.20
2018-08-18T21:46:35.650Z,44.26
2018-08-18T21:49:04.746Z,43.91
2018-08-18T21:51:33.890Z,45.11
2018-08-18T21:54:03.202Z,44.73
2018-08-18T21:56:36.654Z,44.97
2018-08-18T21:59:08.309Z,44.94
2018-08-18T22:01:37.457Z,45.31
2018-08-18T22:04:06.923Z,45.68
2018-08-18T22:06:36.074Z,45.18
2018-08-18T22:09:19.713Z,44.96
2018-08-18T22:11:48.844Z,45.05
2018-08-18T22:14:18.416Z,44.80
2018-08-18T22:16:52.887Z,45.31
2018-08-18T22:19:22.290Z,45.86
2018-08-18T22:21:51.402Z,44.97
2018-08-18T22:24:20.617Z,45.64
2018-08-18T22:26:49.715Z,46.36
2018-08-18T22:29:22.445Z,46.70
2018-08-18T22:31:52.083Z,45.76
2018-08-18T22:34:21.144Z,46.53
2018-08-18T22:36:50.253Z,48.11
2018-08-18T22:39:19.293Z,47.47
2018-08-18T22:41:48.426Z,46.91
2018-08-18T22:44:17.566Z,46.98
2018-08-18T22:46:46.717Z,45.79
2018-08-18T22:49:15.750Z,46.88
2018-08-18T22:51:44.870Z,46.73
2018-08-18T22:54:13.983Z,48.21
2018-08-18T22:56:47.246Z,48.39
2018-08-18T22:59:16.405Z,47.04
2018-08-18T23:01:45.530Z,46.48
2018-08-18T23:04:28.341Z,45.86
2018-08-18T23:06:58.204Z,46.54
2018-08-18T23:09:28.198Z,45.98
2018-08-18T23:12:00.349Z,45.93
2018-08-18T23:14:33.986Z,45.89
2018-08-18T23:17:06.973Z,45.16
2018-08-18T23:19:36.089Z,45.11
2018-08-18T23:22:05.767Z,45.48
2018-08-18T23:24:38.124Z,46.74
2018-08-18T23:27:07.166Z,46.85
2018-08-18T23:29:36.676Z,46.56
2018-08-18T23:32:16.098Z,46.20
2018-08-18T23:34:45.217Z,45.92
2018-08-18T23:37:19.498Z,46.48
2018-08-18T23:39:52.494Z,49.50
2018-08-18T23:42:23.387Z,50.91
2018-08-18T23:44:52.629Z,52.31
2018-08-18T23:47:21.676Z,52.59
2018-08-18T23:49:50.906Z,54.37
2018-08-18T23:52:20.007Z,53.89
2018-08-18T23:54:49.144Z,54.02
2018-08-18T23:57:18.714Z,54.51
2018-08-18T23:59:48.336Z,54.93
